<?xml version="1.0" encoding="utf-8"?>
<gpx xmlns:xsi="http://www.w3.org/2001/XMLSchema-instance" xmlns:xsd="http://www.w3.org/2001/XMLSchema" version="1.1" creator="Shapelink.com" xmlns="http://www.topografix.com/GPX/1/1" xmlns:gpxtpx="http://www.garmin.com/xmlschemas/TrackPointExtension/v1">
  <metadata>
    <name>Løping 3.10 km, 2012-03-26</name>
    <desc></desc>
    <author><name>Mikael Blom</name></author> 
    <time>2012-03-26T18:22:39Z</time>
  </metadata>
  <trk>
    <name>Løping 3.10 km, 2012-03-26</name>
    <trkseg>
      <trkpt lat="59.9506114" lon="17.7085287">
        <ele>51.0872</ele>
        <time>2012-03-26T18:22:39Z</time>
      </trkpt>
      <trkpt lat="59.9505171" lon="17.7084379">
        <ele>50.126</ele>
        <time>2012-03-26T18:22:44Z</time>
      </trkpt>
      <trkpt lat="59.9504227" lon="17.7082872">
        <ele>51.0872</ele>
        <time>2012-03-26T18:22:50Z</time>
      </trkpt>
      <trkpt lat="59.9503627" lon="17.7082132">
        <ele>53.4905</ele>
        <time>2012-03-26T18:22:54Z</time>
      </trkpt>
      <trkpt lat="59.9502695" lon="17.7081122">
        <ele>57.3358</ele>
        <time>2012-03-26T18:22:59Z</time>
      </trkpt>
      <trkpt lat="59.950173" lon="17.7081023">
        <ele>57.3358</ele>
        <time>2012-03-26T18:23:03Z</time>
      </trkpt>
      <trkpt lat="59.9500786" lon="17.7081535">
        <ele>56.3745</ele>
        <time>2012-03-26T18:23:07Z</time>
      </trkpt>
      <trkpt lat="59.9500283" lon="17.7083197">
        <ele>55.8938</ele>
        <time>2012-03-26T18:23:11Z</time>
      </trkpt>
      <trkpt lat="59.9500213" lon="17.7083482">
        <ele>56.3745</ele>
        <time>2012-03-26T18:23:12Z</time>
      </trkpt>
      <trkpt lat="59.9500218" lon="17.708443">
        <ele>56.8551</ele>
        <time>2012-03-26T18:23:15Z</time>
      </trkpt>
      <trkpt lat="59.9499923" lon="17.7085933">
        <ele>57.8165</ele>
        <time>2012-03-26T18:23:20Z</time>
      </trkpt>
      <trkpt lat="59.9499576" lon="17.7087426">
        <ele>56.3745</ele>
        <time>2012-03-26T18:23:25Z</time>
      </trkpt>
      <trkpt lat="59.9499538" lon="17.7088617">
        <ele>56.3745</ele>
        <time>2012-03-26T18:23:30Z</time>
      </trkpt>
      <trkpt lat="59.9499323" lon="17.7090443">
        <ele>56.8551</ele>
        <time>2012-03-26T18:23:37Z</time>
      </trkpt>
      <trkpt lat="59.9499254" lon="17.7090942">
        <ele>56.8551</ele>
        <time>2012-03-26T18:23:39Z</time>
      </trkpt>
      <trkpt lat="59.9498824" lon="17.7092325">
        <ele>56.3745</ele>
        <time>2012-03-26T18:23:47Z</time>
      </trkpt>
      <trkpt lat="59.9498482" lon="17.7093652">
        <ele>56.8551</ele>
        <time>2012-03-26T18:23:55Z</time>
      </trkpt>
      <trkpt lat="59.949824" lon="17.7095333">
        <ele>57.8165</ele>
        <time>2012-03-26T18:24:02Z</time>
      </trkpt>
      <trkpt lat="59.9497965" lon="17.7096545">
        <ele>57.8165</ele>
        <time>2012-03-26T18:24:07Z</time>
      </trkpt>
      <trkpt lat="59.9497615" lon="17.7097784">
        <ele>55.8938</ele>
        <time>2012-03-26T18:24:12Z</time>
      </trkpt>
      <trkpt lat="59.9497477" lon="17.7098604">
        <ele>55.4131</ele>
        <time>2012-03-26T18:24:16Z</time>
      </trkpt>
      <trkpt lat="59.9497165" lon="17.7099561">
        <ele>55.8938</ele>
        <time>2012-03-26T18:24:21Z</time>
      </trkpt>
      <trkpt lat="59.9496612" lon="17.7101245">
        <ele>56.3745</ele>
        <time>2012-03-26T18:24:28Z</time>
      </trkpt>
      <trkpt lat="59.94961" lon="17.7102597">
        <ele>57.3358</ele>
        <time>2012-03-26T18:24:35Z</time>
      </trkpt>
      <trkpt lat="59.9495751" lon="17.7103727">
        <ele>57.8165</ele>
        <time>2012-03-26T18:24:40Z</time>
      </trkpt>
      <trkpt lat="59.9495168" lon="17.7104795">
        <ele>58.2971</ele>
        <time>2012-03-26T18:24:47Z</time>
      </trkpt>
      <trkpt lat="59.9494908" lon="17.7105307">
        <ele>58.2971</ele>
        <time>2012-03-26T18:24:50Z</time>
      </trkpt>
      <trkpt lat="59.949425" lon="17.7106301">
        <ele>57.8165</ele>
        <time>2012-03-26T18:24:57Z</time>
      </trkpt>
      <trkpt lat="59.949416" lon="17.7106523">
        <ele>57.8165</ele>
        <time>2012-03-26T18:24:58Z</time>
      </trkpt>
      <trkpt lat="59.9493727" lon="17.710748">
        <ele>55.8938</ele>
        <time>2012-03-26T18:25:02Z</time>
      </trkpt>
      <trkpt lat="59.9493179" lon="17.7107931">
        <ele>52.0486</ele>
        <time>2012-03-26T18:25:07Z</time>
      </trkpt>
      <trkpt lat="59.9492941" lon="17.7108801">
        <ele>50.126</ele>
        <time>2012-03-26T18:25:11Z</time>
      </trkpt>
      <trkpt lat="59.9492976" lon="17.7110454">
        <ele>49.1646</ele>
        <time>2012-03-26T18:25:17Z</time>
      </trkpt>
      <trkpt lat="59.9493091" lon="17.7111693">
        <ele>48.684</ele>
        <time>2012-03-26T18:25:22Z</time>
      </trkpt>
      <trkpt lat="59.949322" lon="17.7112528">
        <ele>49.1646</ele>
        <time>2012-03-26T18:25:25Z</time>
      </trkpt>
      <trkpt lat="59.9493468" lon="17.7113377">
        <ele>49.6453</ele>
        <time>2012-03-26T18:25:29Z</time>
      </trkpt>
      <trkpt lat="59.9493691" lon="17.7114604">
        <ele>49.1646</ele>
        <time>2012-03-26T18:25:33Z</time>
      </trkpt>
      <trkpt lat="59.9493846" lon="17.7115393">
        <ele>49.1646</ele>
        <time>2012-03-26T18:25:37Z</time>
      </trkpt>
      <trkpt lat="59.9493803" lon="17.7115714">
        <ele>49.6453</ele>
        <time>2012-03-26T18:25:41Z</time>
      </trkpt>
      <trkpt lat="59.9493868" lon="17.7116739">
        <ele>50.6066</ele>
        <time>2012-03-26T18:25:45Z</time>
      </trkpt>
      <trkpt lat="59.9494086" lon="17.7117603">
        <ele>51.0872</ele>
        <time>2012-03-26T18:25:49Z</time>
      </trkpt>
      <trkpt lat="59.949408" lon="17.711863">
        <ele>50.6066</ele>
        <time>2012-03-26T18:25:52Z</time>
      </trkpt>
      <trkpt lat="59.9494095" lon="17.7118806">
        <ele>50.6066</ele>
        <time>2012-03-26T18:25:53Z</time>
      </trkpt>
      <trkpt lat="59.9494296" lon="17.7120253">
        <ele>48.684</ele>
        <time>2012-03-26T18:25:58Z</time>
      </trkpt>
      <trkpt lat="59.9494386" lon="17.7120446">
        <ele>48.684</ele>
        <time>2012-03-26T18:25:59Z</time>
      </trkpt>
      <trkpt lat="59.9494516" lon="17.7121143">
        <ele>48.2034</ele>
        <time>2012-03-26T18:26:02Z</time>
      </trkpt>
      <trkpt lat="59.9494415" lon="17.7121532">
        <ele>47.7225</ele>
        <time>2012-03-26T18:26:05Z</time>
      </trkpt>
      <trkpt lat="59.9494271" lon="17.7121701">
        <ele>49.1646</ele>
        <time>2012-03-26T18:26:13Z</time>
      </trkpt>
      <trkpt lat="59.9494248" lon="17.7121086">
        <ele>50.6066</ele>
        <time>2012-03-26T18:26:17Z</time>
      </trkpt>
      <trkpt lat="59.9493876" lon="17.7118981">
        <ele>49.6453</ele>
        <time>2012-03-26T18:26:21Z</time>
      </trkpt>
      <trkpt lat="59.9493872" lon="17.7118066">
        <ele>50.6066</ele>
        <time>2012-03-26T18:26:23Z</time>
      </trkpt>
      <trkpt lat="59.9493717" lon="17.7116505">
        <ele>51.5679</ele>
        <time>2012-03-26T18:26:26Z</time>
      </trkpt>
      <trkpt lat="59.949353" lon="17.7114506">
        <ele>54.4518</ele>
        <time>2012-03-26T18:26:30Z</time>
      </trkpt>
      <trkpt lat="59.9493534" lon="17.7112539">
        <ele>58.7777</ele>
        <time>2012-03-26T18:26:34Z</time>
      </trkpt>
      <trkpt lat="59.9493658" lon="17.7111197">
        <ele>61.6617</ele>
        <time>2012-03-26T18:26:37Z</time>
      </trkpt>
      <trkpt lat="59.9493318" lon="17.7109285">
        <ele>61.181</ele>
        <time>2012-03-26T18:26:40Z</time>
      </trkpt>
      <trkpt lat="59.9492996" lon="17.7106969">
        <ele>61.6617</ele>
        <time>2012-03-26T18:26:45Z</time>
      </trkpt>
      <trkpt lat="59.9493026" lon="17.7106503">
        <ele>62.1423</ele>
        <time>2012-03-26T18:26:46Z</time>
      </trkpt>
      <trkpt lat="59.9493956" lon="17.7105">
        <ele>64.0651</ele>
        <time>2012-03-26T18:26:51Z</time>
      </trkpt>
      <trkpt lat="59.9494539" lon="17.7104172">
        <ele>65.9877</ele>
        <time>2012-03-26T18:26:54Z</time>
      </trkpt>
      <trkpt lat="59.9494746" lon="17.7103877">
        <ele>66.4683</ele>
        <time>2012-03-26T18:26:55Z</time>
      </trkpt>
      <trkpt lat="59.9495231" lon="17.7103094">
        <ele>66.949</ele>
        <time>2012-03-26T18:27:01Z</time>
      </trkpt>
      <trkpt lat="59.9495235" lon="17.7102726">
        <ele>65.9877</ele>
        <time>2012-03-26T18:27:05Z</time>
      </trkpt>
      <trkpt lat="59.9495412" lon="17.7102547">
        <ele>66.4683</ele>
        <time>2012-03-26T18:27:06Z</time>
      </trkpt>
      <trkpt lat="59.9495911" lon="17.7102168">
        <ele>67.9103</ele>
        <time>2012-03-26T18:27:10Z</time>
      </trkpt>
      <trkpt lat="59.9496291" lon="17.7101384">
        <ele>67.9103</ele>
        <time>2012-03-26T18:27:14Z</time>
      </trkpt>
      <trkpt lat="59.9496367" lon="17.7101239">
        <ele>67.9103</ele>
        <time>2012-03-26T18:27:15Z</time>
      </trkpt>
      <trkpt lat="59.9496579" lon="17.7100179">
        <ele>66.949</ele>
        <time>2012-03-26T18:27:21Z</time>
      </trkpt>
      <trkpt lat="59.9496783" lon="17.7099148">
        <ele>65.9877</ele>
        <time>2012-03-26T18:27:27Z</time>
      </trkpt>
      <trkpt lat="59.9496871" lon="17.7098729">
        <ele>65.9877</ele>
        <time>2012-03-26T18:27:29Z</time>
      </trkpt>
      <trkpt lat="59.9497083" lon="17.7097685">
        <ele>65.5071</ele>
        <time>2012-03-26T18:27:34Z</time>
      </trkpt>
      <trkpt lat="59.9497421" lon="17.7096833">
        <ele>64.5457</ele>
        <time>2012-03-26T18:27:39Z</time>
      </trkpt>
      <trkpt lat="59.949774" lon="17.7096491">
        <ele>63.1036</ele>
        <time>2012-03-26T18:27:44Z</time>
      </trkpt>
      <trkpt lat="59.9497804" lon="17.7097014">
        <ele>62.6229</ele>
        <time>2012-03-26T18:27:46Z</time>
      </trkpt>
      <trkpt lat="59.9497612" lon="17.7098635">
        <ele>61.181</ele>
        <time>2012-03-26T18:27:51Z</time>
      </trkpt>
      <trkpt lat="59.9497763" lon="17.7099635">
        <ele>63.1036</ele>
        <time>2012-03-26T18:27:56Z</time>
      </trkpt>
      <trkpt lat="59.9498099" lon="17.7100757">
        <ele>63.1036</ele>
        <time>2012-03-26T18:28:01Z</time>
      </trkpt>
      <trkpt lat="59.9498149" lon="17.7100848">
        <ele>63.5844</ele>
        <time>2012-03-26T18:28:02Z</time>
      </trkpt>
      <trkpt lat="59.9498441" lon="17.710165">
        <ele>63.5844</ele>
        <time>2012-03-26T18:28:07Z</time>
      </trkpt>
      <trkpt lat="59.9498954" lon="17.7101675">
        <ele>62.6229</ele>
        <time>2012-03-26T18:28:12Z</time>
      </trkpt>
      <trkpt lat="59.9499375" lon="17.7102645">
        <ele>60.7003</ele>
        <time>2012-03-26T18:28:17Z</time>
      </trkpt>
      <trkpt lat="59.9499678" lon="17.7103814">
        <ele>58.7777</ele>
        <time>2012-03-26T18:28:22Z</time>
      </trkpt>
      <trkpt lat="59.9499892" lon="17.7104901">
        <ele>56.8551</ele>
        <time>2012-03-26T18:28:26Z</time>
      </trkpt>
      <trkpt lat="59.9499912" lon="17.7105585">
        <ele>52.5292</ele>
        <time>2012-03-26T18:28:31Z</time>
      </trkpt>
      <trkpt lat="59.9500564" lon="17.710572">
        <ele>51.5679</ele>
        <time>2012-03-26T18:28:37Z</time>
      </trkpt>
      <trkpt lat="59.9501198" lon="17.7105794">
        <ele>51.5679</ele>
        <time>2012-03-26T18:28:42Z</time>
      </trkpt>
      <trkpt lat="59.9501472" lon="17.7106274">
        <ele>51.5679</ele>
        <time>2012-03-26T18:28:46Z</time>
      </trkpt>
      <trkpt lat="59.9501772" lon="17.7107188">
        <ele>51.0872</ele>
        <time>2012-03-26T18:28:53Z</time>
      </trkpt>
      <trkpt lat="59.9501723" lon="17.7107219">
        <ele>51.0872</ele>
        <time>2012-03-26T18:28:59Z</time>
      </trkpt>
      <trkpt lat="59.950176" lon="17.710813">
        <ele>49.6453</ele>
        <time>2012-03-26T18:29:04Z</time>
      </trkpt>
      <trkpt lat="59.9501985" lon="17.7109169">
        <ele>48.684</ele>
        <time>2012-03-26T18:29:09Z</time>
      </trkpt>
      <trkpt lat="59.9501939" lon="17.7109989">
        <ele>47.7225</ele>
        <time>2012-03-26T18:29:13Z</time>
      </trkpt>
      <trkpt lat="59.9501842" lon="17.7110768">
        <ele>46.2806</ele>
        <time>2012-03-26T18:29:17Z</time>
      </trkpt>
      <trkpt lat="59.9501839" lon="17.7111236">
        <ele>44.358</ele>
        <time>2012-03-26T18:29:22Z</time>
      </trkpt>
      <trkpt lat="59.9501819" lon="17.711112">
        <ele>44.358</ele>
        <time>2012-03-26T18:29:27Z</time>
      </trkpt>
      <trkpt lat="59.9501969" lon="17.7109813">
        <ele>45.7999</ele>
        <time>2012-03-26T18:29:31Z</time>
      </trkpt>
      <trkpt lat="59.9501887" lon="17.7108154">
        <ele>47.2418</ele>
        <time>2012-03-26T18:29:34Z</time>
      </trkpt>
      <trkpt lat="59.9501592" lon="17.7107374">
        <ele>47.7225</ele>
        <time>2012-03-26T18:29:36Z</time>
      </trkpt>
      <trkpt lat="59.950054" lon="17.7106307">
        <ele>48.684</ele>
        <time>2012-03-26T18:29:41Z</time>
      </trkpt>
      <trkpt lat="59.9499834" lon="17.710626">
        <ele>48.684</ele>
        <time>2012-03-26T18:29:44Z</time>
      </trkpt>
      <trkpt lat="59.9499254" lon="17.7106418">
        <ele>49.6453</ele>
        <time>2012-03-26T18:29:47Z</time>
      </trkpt>
      <trkpt lat="59.9498859" lon="17.7106715">
        <ele>49.1646</ele>
        <time>2012-03-26T18:29:49Z</time>
      </trkpt>
      <trkpt lat="59.9497476" lon="17.710713">
        <ele>49.1646</ele>
        <time>2012-03-26T18:29:55Z</time>
      </trkpt>
      <trkpt lat="59.9496986" lon="17.7106854">
        <ele>51.5679</ele>
        <time>2012-03-26T18:29:58Z</time>
      </trkpt>
      <trkpt lat="59.9496781" lon="17.7105528">
        <ele>54.4518</ele>
        <time>2012-03-26T18:30:02Z</time>
      </trkpt>
      <trkpt lat="59.9496818" lon="17.7104614">
        <ele>57.3358</ele>
        <time>2012-03-26T18:30:05Z</time>
      </trkpt>
      <trkpt lat="59.9496093" lon="17.7103606">
        <ele>59.2584</ele>
        <time>2012-03-26T18:30:10Z</time>
      </trkpt>
      <trkpt lat="59.9495131" lon="17.7103401">
        <ele>58.2971</ele>
        <time>2012-03-26T18:30:14Z</time>
      </trkpt>
      <trkpt lat="59.9494868" lon="17.7103234">
        <ele>59.7391</ele>
        <time>2012-03-26T18:30:19Z</time>
      </trkpt>
      <trkpt lat="59.9494888" lon="17.7103328">
        <ele>60.2197</ele>
        <time>2012-03-26T18:30:22Z</time>
      </trkpt>
      <trkpt lat="59.9494704" lon="17.7104186">
        <ele>61.181</ele>
        <time>2012-03-26T18:30:27Z</time>
      </trkpt>
      <trkpt lat="59.9494792" lon="17.7104773">
        <ele>61.181</ele>
        <time>2012-03-26T18:30:31Z</time>
      </trkpt>
      <trkpt lat="59.9494946" lon="17.7105204">
        <ele>61.6617</ele>
        <time>2012-03-26T18:30:33Z</time>
      </trkpt>
      <trkpt lat="59.949456" lon="17.7106742">
        <ele>59.7391</ele>
        <time>2012-03-26T18:30:40Z</time>
      </trkpt>
      <trkpt lat="59.9494419" lon="17.710725">
        <ele>59.7391</ele>
        <time>2012-03-26T18:30:43Z</time>
      </trkpt>
      <trkpt lat="59.9494193" lon="17.7108187">
        <ele>58.7777</ele>
        <time>2012-03-26T18:30:47Z</time>
      </trkpt>
      <trkpt lat="59.949384" lon="17.7109341">
        <ele>57.8165</ele>
        <time>2012-03-26T18:30:53Z</time>
      </trkpt>
      <trkpt lat="59.9493909" lon="17.7109996">
        <ele>56.3745</ele>
        <time>2012-03-26T18:30:56Z</time>
      </trkpt>
      <trkpt lat="59.9494083" lon="17.7110674">
        <ele>53.0098</ele>
        <time>2012-03-26T18:31:00Z</time>
      </trkpt>
      <trkpt lat="59.949414" lon="17.711115">
        <ele>49.6453</ele>
        <time>2012-03-26T18:31:03Z</time>
      </trkpt>
      <trkpt lat="59.9494396" lon="17.7111346">
        <ele>47.7225</ele>
        <time>2012-03-26T18:31:06Z</time>
      </trkpt>
      <trkpt lat="59.9495057" lon="17.7111508">
        <ele>45.7999</ele>
        <time>2012-03-26T18:31:11Z</time>
      </trkpt>
      <trkpt lat="59.9495722" lon="17.7111107">
        <ele>46.2806</ele>
        <time>2012-03-26T18:31:16Z</time>
      </trkpt>
      <trkpt lat="59.949658" lon="17.7110938">
        <ele>46.7612</ele>
        <time>2012-03-26T18:31:22Z</time>
      </trkpt>
      <trkpt lat="59.9496948" lon="17.7110808">
        <ele>46.7612</ele>
        <time>2012-03-26T18:31:25Z</time>
      </trkpt>
      <trkpt lat="59.9497686" lon="17.7110885">
        <ele>46.2806</ele>
        <time>2012-03-26T18:31:30Z</time>
      </trkpt>
      <trkpt lat="59.949832" lon="17.711087">
        <ele>45.7999</ele>
        <time>2012-03-26T18:31:35Z</time>
      </trkpt>
      <trkpt lat="59.9498848" lon="17.7110321">
        <ele>47.7225</ele>
        <time>2012-03-26T18:31:39Z</time>
      </trkpt>
      <trkpt lat="59.9499181" lon="17.7109777">
        <ele>48.2034</ele>
        <time>2012-03-26T18:31:42Z</time>
      </trkpt>
      <trkpt lat="59.9499804" lon="17.7109042">
        <ele>49.6453</ele>
        <time>2012-03-26T18:31:47Z</time>
      </trkpt>
      <trkpt lat="59.9500532" lon="17.7108601">
        <ele>48.2034</ele>
        <time>2012-03-26T18:31:54Z</time>
      </trkpt>
      <trkpt lat="59.9500969" lon="17.7108907">
        <ele>48.684</ele>
        <time>2012-03-26T18:31:58Z</time>
      </trkpt>
      <trkpt lat="59.9501183" lon="17.7110408">
        <ele>47.2418</ele>
        <time>2012-03-26T18:32:05Z</time>
      </trkpt>
      <trkpt lat="59.9501053" lon="17.7110777">
        <ele>46.7612</ele>
        <time>2012-03-26T18:32:07Z</time>
      </trkpt>
      <trkpt lat="59.9500012" lon="17.7112073">
        <ele>42.4354</ele>
        <time>2012-03-26T18:32:15Z</time>
      </trkpt>
      <trkpt lat="59.9499456" lon="17.7112405">
        <ele>40.0321</ele>
        <time>2012-03-26T18:32:20Z</time>
      </trkpt>
      <trkpt lat="59.9499387" lon="17.7112327">
        <ele>40.0321</ele>
        <time>2012-03-26T18:32:21Z</time>
      </trkpt>
      <trkpt lat="59.9499853" lon="17.7110948">
        <ele>40.0321</ele>
        <time>2012-03-26T18:32:26Z</time>
      </trkpt>
      <trkpt lat="59.9500005" lon="17.7110715">
        <ele>40.9934</ele>
        <time>2012-03-26T18:32:27Z</time>
      </trkpt>
      <trkpt lat="59.9500342" lon="17.7108999">
        <ele>42.916</ele>
        <time>2012-03-26T18:32:31Z</time>
      </trkpt>
      <trkpt lat="59.9499747" lon="17.7109166">
        <ele>43.3966</ele>
        <time>2012-03-26T18:32:35Z</time>
      </trkpt>
      <trkpt lat="59.9499004" lon="17.7110062">
        <ele>43.3966</ele>
        <time>2012-03-26T18:32:38Z</time>
      </trkpt>
      <trkpt lat="59.949783" lon="17.7110869">
        <ele>44.358</ele>
        <time>2012-03-26T18:32:43Z</time>
      </trkpt>
      <trkpt lat="59.9496799" lon="17.7111135">
        <ele>45.7999</ele>
        <time>2012-03-26T18:32:47Z</time>
      </trkpt>
      <trkpt lat="59.9495722" lon="17.7110974">
        <ele>47.7225</ele>
        <time>2012-03-26T18:32:51Z</time>
      </trkpt>
      <trkpt lat="59.9494697" lon="17.7111055">
        <ele>49.6453</ele>
        <time>2012-03-26T18:32:56Z</time>
      </trkpt>
      <trkpt lat="59.9493803" lon="17.7110599">
        <ele>52.0486</ele>
        <time>2012-03-26T18:33:01Z</time>
      </trkpt>
      <trkpt lat="59.949334" lon="17.7109933">
        <ele>53.9712</ele>
        <time>2012-03-26T18:33:04Z</time>
      </trkpt>
      <trkpt lat="59.9493308" lon="17.7107855">
        <ele>54.9324</ele>
        <time>2012-03-26T18:33:09Z</time>
      </trkpt>
      <trkpt lat="59.9493423" lon="17.7107411">
        <ele>55.4131</ele>
        <time>2012-03-26T18:33:10Z</time>
      </trkpt>
      <trkpt lat="59.9494409" lon="17.7106106">
        <ele>56.3745</ele>
        <time>2012-03-26T18:33:16Z</time>
      </trkpt>
      <trkpt lat="59.9495235" lon="17.7104969">
        <ele>59.2584</ele>
        <time>2012-03-26T18:33:21Z</time>
      </trkpt>
      <trkpt lat="59.9495395" lon="17.7104751">
        <ele>59.7391</ele>
        <time>2012-03-26T18:33:24Z</time>
      </trkpt>
      <trkpt lat="59.9495746" lon="17.7103968">
        <ele>61.181</ele>
        <time>2012-03-26T18:33:30Z</time>
      </trkpt>
      <trkpt lat="59.9495846" lon="17.7103614">
        <ele>62.6229</ele>
        <time>2012-03-26T18:33:34Z</time>
      </trkpt>
      <trkpt lat="59.9495825" lon="17.7103148">
        <ele>63.1036</ele>
        <time>2012-03-26T18:33:37Z</time>
      </trkpt>
      <trkpt lat="59.9495609" lon="17.710235">
        <ele>63.5844</ele>
        <time>2012-03-26T18:33:41Z</time>
      </trkpt>
      <trkpt lat="59.9495676" lon="17.7101736">
        <ele>63.5844</ele>
        <time>2012-03-26T18:33:44Z</time>
      </trkpt>
      <trkpt lat="59.9495783" lon="17.7101287">
        <ele>62.6229</ele>
        <time>2012-03-26T18:33:47Z</time>
      </trkpt>
      <trkpt lat="59.9495635" lon="17.7100092">
        <ele>62.1423</ele>
        <time>2012-03-26T18:33:52Z</time>
      </trkpt>
      <trkpt lat="59.9496001" lon="17.7099348">
        <ele>61.6617</ele>
        <time>2012-03-26T18:33:57Z</time>
      </trkpt>
      <trkpt lat="59.949621" lon="17.7098535">
        <ele>61.6617</ele>
        <time>2012-03-26T18:34:03Z</time>
      </trkpt>
      <trkpt lat="59.9496284" lon="17.7098126">
        <ele>62.1423</ele>
        <time>2012-03-26T18:34:06Z</time>
      </trkpt>
      <trkpt lat="59.9496422" lon="17.7097674">
        <ele>63.1036</ele>
        <time>2012-03-26T18:34:10Z</time>
      </trkpt>
      <trkpt lat="59.9496525" lon="17.7097494">
        <ele>63.5844</ele>
        <time>2012-03-26T18:34:11Z</time>
      </trkpt>
      <trkpt lat="59.9497108" lon="17.7096888">
        <ele>64.0651</ele>
        <time>2012-03-26T18:34:16Z</time>
      </trkpt>
      <trkpt lat="59.9497472" lon="17.709606">
        <ele>62.6229</ele>
        <time>2012-03-26T18:34:20Z</time>
      </trkpt>
      <trkpt lat="59.9497757" lon="17.7095147">
        <ele>61.181</ele>
        <time>2012-03-26T18:34:25Z</time>
      </trkpt>
      <trkpt lat="59.9498109" lon="17.7094185">
        <ele>60.2197</ele>
        <time>2012-03-26T18:34:30Z</time>
      </trkpt>
      <trkpt lat="59.9498207" lon="17.7094076">
        <ele>59.7391</ele>
        <time>2012-03-26T18:34:31Z</time>
      </trkpt>
      <trkpt lat="59.9498493" lon="17.7092999">
        <ele>59.2584</ele>
        <time>2012-03-26T18:34:37Z</time>
      </trkpt>
      <trkpt lat="59.9498515" lon="17.7092365">
        <ele>59.7391</ele>
        <time>2012-03-26T18:34:40Z</time>
      </trkpt>
      <trkpt lat="59.9498887" lon="17.7091546">
        <ele>58.7777</ele>
        <time>2012-03-26T18:34:44Z</time>
      </trkpt>
      <trkpt lat="59.9498954" lon="17.709132">
        <ele>58.7777</ele>
        <time>2012-03-26T18:34:45Z</time>
      </trkpt>
      <trkpt lat="59.949898" lon="17.7090797">
        <ele>57.8165</ele>
        <time>2012-03-26T18:34:47Z</time>
      </trkpt>
      <trkpt lat="59.9499144" lon="17.7089814">
        <ele>56.8551</ele>
        <time>2012-03-26T18:34:51Z</time>
      </trkpt>
      <trkpt lat="59.9499224" lon="17.7088864">
        <ele>57.8165</ele>
        <time>2012-03-26T18:34:55Z</time>
      </trkpt>
      <trkpt lat="59.9499849" lon="17.7088212">
        <ele>56.8551</ele>
        <time>2012-03-26T18:34:59Z</time>
      </trkpt>
      <trkpt lat="59.9499974" lon="17.7087415">
        <ele>55.8938</ele>
        <time>2012-03-26T18:35:02Z</time>
      </trkpt>
      <trkpt lat="59.9500223" lon="17.7086375">
        <ele>54.4518</ele>
        <time>2012-03-26T18:35:06Z</time>
      </trkpt>
      <trkpt lat="59.9500323" lon="17.7085105">
        <ele>52.5292</ele>
        <time>2012-03-26T18:35:11Z</time>
      </trkpt>
      <trkpt lat="59.9500486" lon="17.7084093">
        <ele>50.126</ele>
        <time>2012-03-26T18:35:16Z</time>
      </trkpt>
      <trkpt lat="59.9500799" lon="17.7083306">
        <ele>47.7225</ele>
        <time>2012-03-26T18:35:20Z</time>
      </trkpt>
      <trkpt lat="59.9500973" lon="17.7082135">
        <ele>44.8386</ele>
        <time>2012-03-26T18:35:25Z</time>
      </trkpt>
      <trkpt lat="59.9501083" lon="17.7081363">
        <ele>44.358</ele>
        <time>2012-03-26T18:35:29Z</time>
      </trkpt>
      <trkpt lat="59.9501456" lon="17.7080619">
        <ele>43.8773</ele>
        <time>2012-03-26T18:35:33Z</time>
      </trkpt>
      <trkpt lat="59.9502035" lon="17.7079898">
        <ele>42.916</ele>
        <time>2012-03-26T18:35:38Z</time>
      </trkpt>
      <trkpt lat="59.9502233" lon="17.7079853">
        <ele>42.4354</ele>
        <time>2012-03-26T18:35:40Z</time>
      </trkpt>
      <trkpt lat="59.9502622" lon="17.7079996">
        <ele>40.9934</ele>
        <time>2012-03-26T18:35:43Z</time>
      </trkpt>
      <trkpt lat="59.9503543" lon="17.7080805">
        <ele>42.4354</ele>
        <time>2012-03-26T18:35:49Z</time>
      </trkpt>
      <trkpt lat="59.9504171" lon="17.7081272">
        <ele>42.916</ele>
        <time>2012-03-26T18:35:54Z</time>
      </trkpt>
      <trkpt lat="59.950445" lon="17.7081598">
        <ele>42.916</ele>
        <time>2012-03-26T18:35:57Z</time>
      </trkpt>
      <trkpt lat="59.9504532" lon="17.7082108">
        <ele>42.916</ele>
        <time>2012-03-26T18:36:00Z</time>
      </trkpt>
      <trkpt lat="59.9504883" lon="17.7082793">
        <ele>42.916</ele>
        <time>2012-03-26T18:36:06Z</time>
      </trkpt>
      <trkpt lat="59.9505393" lon="17.7083209">
        <ele>42.4354</ele>
        <time>2012-03-26T18:36:10Z</time>
      </trkpt>
      <trkpt lat="59.9505994" lon="17.7084296">
        <ele>42.916</ele>
        <time>2012-03-26T18:36:16Z</time>
      </trkpt>
      <trkpt lat="59.9506279" lon="17.7084794">
        <ele>44.358</ele>
        <time>2012-03-26T18:36:21Z</time>
      </trkpt>
      <trkpt lat="59.9506409" lon="17.7084823">
        <ele>44.8386</ele>
        <time>2012-03-26T18:36:24Z</time>
      </trkpt>
      <trkpt lat="59.9506525" lon="17.7085249">
        <ele>45.7999</ele>
        <time>2012-03-26T18:36:29Z</time>
      </trkpt>
      <trkpt lat="59.950681" lon="17.7085369">
        <ele>47.2418</ele>
        <time>2012-03-26T18:36:34Z</time>
      </trkpt>
      <trkpt lat="59.9506826" lon="17.7085353">
        <ele>48.2034</ele>
        <time>2012-03-26T18:36:39Z</time>
      </trkpt>
      <trkpt lat="59.9506709" lon="17.7085457">
        <ele>47.7225</ele>
        <time>2012-03-26T18:36:47Z</time>
      </trkpt>
      <trkpt lat="59.9506577" lon="17.7085357">
        <ele>48.684</ele>
        <time>2012-03-26T18:36:57Z</time>
      </trkpt>
      <trkpt lat="59.9506492" lon="17.7085154">
        <ele>48.684</ele>
        <time>2012-03-26T18:37:00Z</time>
      </trkpt>
      <trkpt lat="59.950552" lon="17.7084154">
        <ele>50.6066</ele>
        <time>2012-03-26T18:37:05Z</time>
      </trkpt>
      <trkpt lat="59.9505024" lon="17.7083555">
        <ele>50.6066</ele>
        <time>2012-03-26T18:37:08Z</time>
      </trkpt>
      <trkpt lat="59.9503953" lon="17.7081972">
        <ele>52.5292</ele>
        <time>2012-03-26T18:37:13Z</time>
      </trkpt>
      <trkpt lat="59.9503518" lon="17.7081073">
        <ele>58.7777</ele>
        <time>2012-03-26T18:37:18Z</time>
      </trkpt>
      <trkpt lat="59.9503321" lon="17.7080787">
        <ele>60.2197</ele>
        <time>2012-03-26T18:37:20Z</time>
      </trkpt>
      <trkpt lat="59.9502338" lon="17.7080075">
        <ele>61.181</ele>
        <time>2012-03-26T18:37:26Z</time>
      </trkpt>
      <trkpt lat="59.9501022" lon="17.7080136">
        <ele>59.7391</ele>
        <time>2012-03-26T18:37:31Z</time>
      </trkpt>
      <trkpt lat="59.9499919" lon="17.7081422">
        <ele>58.7777</ele>
        <time>2012-03-26T18:37:36Z</time>
      </trkpt>
      <trkpt lat="59.9499699" lon="17.7082554">
        <ele>56.8551</ele>
        <time>2012-03-26T18:37:40Z</time>
      </trkpt>
      <trkpt lat="59.949966" lon="17.7082944">
        <ele>56.8551</ele>
        <time>2012-03-26T18:37:41Z</time>
      </trkpt>
      <trkpt lat="59.9499389" lon="17.7085102">
        <ele>56.3745</ele>
        <time>2012-03-26T18:37:46Z</time>
      </trkpt>
      <trkpt lat="59.9499012" lon="17.7086497">
        <ele>56.3745</ele>
        <time>2012-03-26T18:37:50Z</time>
      </trkpt>
      <trkpt lat="59.9498507" lon="17.7087851">
        <ele>55.4131</ele>
        <time>2012-03-26T18:37:54Z</time>
      </trkpt>
      <trkpt lat="59.9498243" lon="17.7088652">
        <ele>55.4131</ele>
        <time>2012-03-26T18:37:57Z</time>
      </trkpt>
      <trkpt lat="59.9498032" lon="17.7089697">
        <ele>55.4131</ele>
        <time>2012-03-26T18:38:00Z</time>
      </trkpt>
      <trkpt lat="59.9497633" lon="17.7091241">
        <ele>56.8551</ele>
        <time>2012-03-26T18:38:04Z</time>
      </trkpt>
      <trkpt lat="59.9497556" lon="17.7091745">
        <ele>56.8551</ele>
        <time>2012-03-26T18:38:05Z</time>
      </trkpt>
      <trkpt lat="59.9497499" lon="17.7092793">
        <ele>55.8938</ele>
        <time>2012-03-26T18:38:08Z</time>
      </trkpt>
      <trkpt lat="59.9497325" lon="17.7093505">
        <ele>54.9324</ele>
        <time>2012-03-26T18:38:12Z</time>
      </trkpt>
      <trkpt lat="59.9497182" lon="17.709374">
        <ele>54.4518</ele>
        <time>2012-03-26T18:38:16Z</time>
      </trkpt>
      <trkpt lat="59.9496942" lon="17.709418">
        <ele>53.9712</ele>
        <time>2012-03-26T18:38:21Z</time>
      </trkpt>
      <trkpt lat="59.9496711" lon="17.7094455">
        <ele>54.4518</ele>
        <time>2012-03-26T18:38:24Z</time>
      </trkpt>
      <trkpt lat="59.9496772" lon="17.7094416">
        <ele>54.4518</ele>
        <time>2012-03-26T18:38:27Z</time>
      </trkpt>
      <trkpt lat="59.9496834" lon="17.7094822">
        <ele>56.8551</ele>
        <time>2012-03-26T18:38:34Z</time>
      </trkpt>
      <trkpt lat="59.9496917" lon="17.7095714">
        <ele>58.7777</ele>
        <time>2012-03-26T18:38:39Z</time>
      </trkpt>
      <trkpt lat="59.9496935" lon="17.709673">
        <ele>60.2197</ele>
        <time>2012-03-26T18:38:44Z</time>
      </trkpt>
      <trkpt lat="59.9496737" lon="17.7097789">
        <ele>61.181</ele>
        <time>2012-03-26T18:38:50Z</time>
      </trkpt>
      <trkpt lat="59.9496416" lon="17.7098786">
        <ele>61.6617</ele>
        <time>2012-03-26T18:38:56Z</time>
      </trkpt>
      <trkpt lat="59.9496149" lon="17.709989">
        <ele>62.1423</ele>
        <time>2012-03-26T18:39:02Z</time>
      </trkpt>
      <trkpt lat="59.9495855" lon="17.7100871">
        <ele>62.6229</ele>
        <time>2012-03-26T18:39:06Z</time>
      </trkpt>
      <trkpt lat="59.9495421" lon="17.7102091">
        <ele>63.1036</ele>
        <time>2012-03-26T18:39:12Z</time>
      </trkpt>
      <trkpt lat="59.949525" lon="17.7102712">
        <ele>63.5844</ele>
        <time>2012-03-26T18:39:16Z</time>
      </trkpt>
      <trkpt lat="59.949511" lon="17.710296">
        <ele>64.0651</ele>
        <time>2012-03-26T18:39:18Z</time>
      </trkpt>
      <trkpt lat="59.9494507" lon="17.7104041">
        <ele>64.0651</ele>
        <time>2012-03-26T18:39:24Z</time>
      </trkpt>
      <trkpt lat="59.9494088" lon="17.7104508">
        <ele>63.1036</ele>
        <time>2012-03-26T18:39:28Z</time>
      </trkpt>
      <trkpt lat="59.9493497" lon="17.7105198">
        <ele>62.6229</ele>
        <time>2012-03-26T18:39:33Z</time>
      </trkpt>
      <trkpt lat="59.9492876" lon="17.7105556">
        <ele>61.181</ele>
        <time>2012-03-26T18:39:38Z</time>
      </trkpt>
      <trkpt lat="59.9492176" lon="17.7106">
        <ele>58.7777</ele>
        <time>2012-03-26T18:39:44Z</time>
      </trkpt>
      <trkpt lat="59.9492029" lon="17.7105939">
        <ele>58.2971</ele>
        <time>2012-03-26T18:39:45Z</time>
      </trkpt>
      <trkpt lat="59.9491339" lon="17.7106458">
        <ele>54.9324</ele>
        <time>2012-03-26T18:39:51Z</time>
      </trkpt>
      <trkpt lat="59.9491106" lon="17.7106778">
        <ele>53.4905</ele>
        <time>2012-03-26T18:39:53Z</time>
      </trkpt>
      <trkpt lat="59.9490858" lon="17.7107745">
        <ele>52.5292</ele>
        <time>2012-03-26T18:39:57Z</time>
      </trkpt>
      <trkpt lat="59.9491063" lon="17.7109046">
        <ele>53.4905</ele>
        <time>2012-03-26T18:40:02Z</time>
      </trkpt>
      <trkpt lat="59.949179" lon="17.7110527">
        <ele>56.3745</ele>
        <time>2012-03-26T18:40:09Z</time>
      </trkpt>
      <trkpt lat="59.9491992" lon="17.7111084">
        <ele>56.3745</ele>
        <time>2012-03-26T18:40:11Z</time>
      </trkpt>
      <trkpt lat="59.9491514" lon="17.7112373">
        <ele>54.4518</ele>
        <time>2012-03-26T18:40:17Z</time>
      </trkpt>
      <trkpt lat="59.9490759" lon="17.711302">
        <ele>52.5292</ele>
        <time>2012-03-26T18:40:23Z</time>
      </trkpt>
      <trkpt lat="59.9490039" lon="17.7112218">
        <ele>52.5292</ele>
        <time>2012-03-26T18:40:29Z</time>
      </trkpt>
      <trkpt lat="59.9489441" lon="17.7111191">
        <ele>53.9712</ele>
        <time>2012-03-26T18:40:34Z</time>
      </trkpt>
      <trkpt lat="59.948893" lon="17.7110685">
        <ele>55.4131</ele>
        <time>2012-03-26T18:40:38Z</time>
      </trkpt>
      <trkpt lat="59.9488313" lon="17.7110569">
        <ele>54.4518</ele>
        <time>2012-03-26T18:40:44Z</time>
      </trkpt>
      <trkpt lat="59.9487633" lon="17.7110544">
        <ele>52.5292</ele>
        <time>2012-03-26T18:40:50Z</time>
      </trkpt>
      <trkpt lat="59.9487325" lon="17.7110964">
        <ele>51.5679</ele>
        <time>2012-03-26T18:40:54Z</time>
      </trkpt>
      <trkpt lat="59.948687" lon="17.7111678">
        <ele>49.6453</ele>
        <time>2012-03-26T18:40:58Z</time>
      </trkpt>
      <trkpt lat="59.9486193" lon="17.7111829">
        <ele>46.7612</ele>
        <time>2012-03-26T18:41:03Z</time>
      </trkpt>
      <trkpt lat="59.9485682" lon="17.711212">
        <ele>45.7999</ele>
        <time>2012-03-26T18:41:07Z</time>
      </trkpt>
      <trkpt lat="59.9485594" lon="17.7112237">
        <ele>45.7999</ele>
        <time>2012-03-26T18:41:08Z</time>
      </trkpt>
      <trkpt lat="59.9485278" lon="17.7113383">
        <ele>43.8773</ele>
        <time>2012-03-26T18:41:15Z</time>
      </trkpt>
      <trkpt lat="59.9485111" lon="17.7113679">
        <ele>43.3966</ele>
        <time>2012-03-26T18:41:17Z</time>
      </trkpt>
      <trkpt lat="59.9484907" lon="17.7113673">
        <ele>42.4354</ele>
        <time>2012-03-26T18:41:21Z</time>
      </trkpt>
      <trkpt lat="59.94849" lon="17.7113731">
        <ele>42.916</ele>
        <time>2012-03-26T18:41:25Z</time>
      </trkpt>
      <trkpt lat="59.9485335" lon="17.7111778">
        <ele>44.358</ele>
        <time>2012-03-26T18:41:30Z</time>
      </trkpt>
      <trkpt lat="59.9485919" lon="17.711083">
        <ele>44.8386</ele>
        <time>2012-03-26T18:41:33Z</time>
      </trkpt>
      <trkpt lat="59.9487206" lon="17.7110017">
        <ele>46.7612</ele>
        <time>2012-03-26T18:41:39Z</time>
      </trkpt>
      <trkpt lat="59.9488144" lon="17.7109617">
        <ele>47.2418</ele>
        <time>2012-03-26T18:41:44Z</time>
      </trkpt>
      <trkpt lat="59.9489053" lon="17.7109731">
        <ele>48.684</ele>
        <time>2012-03-26T18:41:49Z</time>
      </trkpt>
      <trkpt lat="59.9489837" lon="17.71106">
        <ele>50.6066</ele>
        <time>2012-03-26T18:41:54Z</time>
      </trkpt>
      <trkpt lat="59.9490743" lon="17.7111526">
        <ele>53.4905</ele>
        <time>2012-03-26T18:41:59Z</time>
      </trkpt>
      <trkpt lat="59.9491713" lon="17.7111581">
        <ele>54.9324</ele>
        <time>2012-03-26T18:42:04Z</time>
      </trkpt>
      <trkpt lat="59.9491702" lon="17.7110156">
        <ele>56.8551</ele>
        <time>2012-03-26T18:42:09Z</time>
      </trkpt>
      <trkpt lat="59.9491173" lon="17.7107309">
        <ele>57.8165</ele>
        <time>2012-03-26T18:42:17Z</time>
      </trkpt>
      <trkpt lat="59.9491333" lon="17.7106529">
        <ele>58.2971</ele>
        <time>2012-03-26T18:42:19Z</time>
      </trkpt>
      <trkpt lat="59.9491837" lon="17.710502">
        <ele>59.2584</ele>
        <time>2012-03-26T18:42:24Z</time>
      </trkpt>
      <trkpt lat="59.949265" lon="17.7104847">
        <ele>61.181</ele>
        <time>2012-03-26T18:42:29Z</time>
      </trkpt>
      <trkpt lat="59.9492821" lon="17.7104839">
        <ele>61.6617</ele>
        <time>2012-03-26T18:42:30Z</time>
      </trkpt>
      <trkpt lat="59.9494399" lon="17.7104509">
        <ele>65.5071</ele>
        <time>2012-03-26T18:42:37Z</time>
      </trkpt>
      <trkpt lat="59.9494898" lon="17.7104367">
        <ele>67.4297</ele>
        <time>2012-03-26T18:42:40Z</time>
      </trkpt>
      <trkpt lat="59.9495093" lon="17.710426">
        <ele>66.949</ele>
        <time>2012-03-26T18:42:46Z</time>
      </trkpt>
      <trkpt lat="59.9494939" lon="17.7104455">
        <ele>65.9877</ele>
        <time>2012-03-26T18:42:54Z</time>
      </trkpt>
      <trkpt lat="59.9494484" lon="17.7104346">
        <ele>63.5844</ele>
        <time>2012-03-26T18:42:59Z</time>
      </trkpt>
      <trkpt lat="59.9494386" lon="17.7104463">
        <ele>63.1036</ele>
        <time>2012-03-26T18:43:00Z</time>
      </trkpt>
      <trkpt lat="59.9493498" lon="17.7104939">
        <ele>60.7003</ele>
        <time>2012-03-26T18:43:07Z</time>
      </trkpt>
      <trkpt lat="59.9492519" lon="17.7105513">
        <ele>58.2971</ele>
        <time>2012-03-26T18:43:16Z</time>
      </trkpt>
      <trkpt lat="59.9491541" lon="17.7105845">
        <ele>54.4518</ele>
        <time>2012-03-26T18:43:25Z</time>
      </trkpt>
      <trkpt lat="59.9491164" lon="17.7106125">
        <ele>53.9712</ele>
        <time>2012-03-26T18:43:29Z</time>
      </trkpt>
      <trkpt lat="59.9490395" lon="17.7106612">
        <ele>52.0486</ele>
        <time>2012-03-26T18:43:36Z</time>
      </trkpt>
      <trkpt lat="59.9490346" lon="17.7106742">
        <ele>52.0486</ele>
        <time>2012-03-26T18:43:37Z</time>
      </trkpt>
      <trkpt lat="59.9489511" lon="17.7107307">
        <ele>51.5679</ele>
        <time>2012-03-26T18:43:44Z</time>
      </trkpt>
      <trkpt lat="59.9489271" lon="17.7107514">
        <ele>51.0872</ele>
        <time>2012-03-26T18:43:46Z</time>
      </trkpt>
      <trkpt lat="59.9488761" lon="17.7108123">
        <ele>50.126</ele>
        <time>2012-03-26T18:43:52Z</time>
      </trkpt>
      <trkpt lat="59.9488291" lon="17.7108591">
        <ele>49.1646</ele>
        <time>2012-03-26T18:43:57Z</time>
      </trkpt>
      <trkpt lat="59.9487704" lon="17.7109418">
        <ele>47.7225</ele>
        <time>2012-03-26T18:44:05Z</time>
      </trkpt>
      <trkpt lat="59.9487282" lon="17.710959">
        <ele>45.3192</ele>
        <time>2012-03-26T18:44:10Z</time>
      </trkpt>
      <trkpt lat="59.948665" lon="17.7110319">
        <ele>43.8773</ele>
        <time>2012-03-26T18:44:17Z</time>
      </trkpt>
      <trkpt lat="59.9486371" lon="17.7110801">
        <ele>44.358</ele>
        <time>2012-03-26T18:44:21Z</time>
      </trkpt>
      <trkpt lat="59.9485839" lon="17.7111624">
        <ele>44.8386</ele>
        <time>2012-03-26T18:44:26Z</time>
      </trkpt>
      <trkpt lat="59.9485548" lon="17.7112248">
        <ele>43.3966</ele>
        <time>2012-03-26T18:44:30Z</time>
      </trkpt>
      <trkpt lat="59.9485429" lon="17.7112542">
        <ele>42.916</ele>
        <time>2012-03-26T18:44:32Z</time>
      </trkpt>
      <trkpt lat="59.9485144" lon="17.7113212">
        <ele>42.4354</ele>
        <time>2012-03-26T18:44:35Z</time>
      </trkpt>
      <trkpt lat="59.9484916" lon="17.7114309">
        <ele>41.474</ele>
        <time>2012-03-26T18:44:41Z</time>
      </trkpt>
      <trkpt lat="59.9484947" lon="17.7114481">
        <ele>41.474</ele>
        <time>2012-03-26T18:44:42Z</time>
      </trkpt>
      <trkpt lat="59.94849" lon="17.7114616">
        <ele>41.474</ele>
        <time>2012-03-26T18:44:48Z</time>
      </trkpt>
      <trkpt lat="59.94849" lon="17.7114238">
        <ele>43.8773</ele>
        <time>2012-03-26T18:44:59Z</time>
      </trkpt>
      <trkpt lat="59.9485573" lon="17.7112052">
        <ele>43.8773</ele>
        <time>2012-03-26T18:45:05Z</time>
      </trkpt>
      <trkpt lat="59.9486081" lon="17.7110899">
        <ele>44.358</ele>
        <time>2012-03-26T18:45:09Z</time>
      </trkpt>
      <trkpt lat="59.9486687" lon="17.7108753">
        <ele>45.7999</ele>
        <time>2012-03-26T18:45:15Z</time>
      </trkpt>
      <trkpt lat="59.9487603" lon="17.7107628">
        <ele>48.2034</ele>
        <time>2012-03-26T18:45:21Z</time>
      </trkpt>
      <trkpt lat="59.9488069" lon="17.710717">
        <ele>49.6453</ele>
        <time>2012-03-26T18:45:24Z</time>
      </trkpt>
      <trkpt lat="59.9488184" lon="17.7106933">
        <ele>49.6453</ele>
        <time>2012-03-26T18:45:25Z</time>
      </trkpt>
      <trkpt lat="59.9488449" lon="17.710639">
        <ele>50.6066</ele>
        <time>2012-03-26T18:45:27Z</time>
      </trkpt>
      <trkpt lat="59.9488934" lon="17.7104975">
        <ele>52.0486</ele>
        <time>2012-03-26T18:45:32Z</time>
      </trkpt>
      <trkpt lat="59.9489515" lon="17.7103492">
        <ele>53.9712</ele>
        <time>2012-03-26T18:45:37Z</time>
      </trkpt>
      <trkpt lat="59.9490527" lon="17.710178">
        <ele>56.3745</ele>
        <time>2012-03-26T18:45:44Z</time>
      </trkpt>
      <trkpt lat="59.949065" lon="17.7101551">
        <ele>56.3745</ele>
        <time>2012-03-26T18:45:45Z</time>
      </trkpt>
      <trkpt lat="59.949151" lon="17.7100464">
        <ele>57.8165</ele>
        <time>2012-03-26T18:45:50Z</time>
      </trkpt>
      <trkpt lat="59.949241" lon="17.7098736">
        <ele>58.2971</ele>
        <time>2012-03-26T18:45:56Z</time>
      </trkpt>
      <trkpt lat="59.9492995" lon="17.7096968">
        <ele>57.8165</ele>
        <time>2012-03-26T18:46:01Z</time>
      </trkpt>
      <trkpt lat="59.9493179" lon="17.70962">
        <ele>56.8551</ele>
        <time>2012-03-26T18:46:03Z</time>
      </trkpt>
      <trkpt lat="59.9493879" lon="17.7094823">
        <ele>56.3745</ele>
        <time>2012-03-26T18:46:08Z</time>
      </trkpt>
      <trkpt lat="59.949395" lon="17.7094461">
        <ele>56.3745</ele>
        <time>2012-03-26T18:46:09Z</time>
      </trkpt>
      <trkpt lat="59.9494502" lon="17.7093351">
        <ele>55.8938</ele>
        <time>2012-03-26T18:46:13Z</time>
      </trkpt>
      <trkpt lat="59.9495414" lon="17.7090677">
        <ele>55.4131</ele>
        <time>2012-03-26T18:46:21Z</time>
      </trkpt>
      <trkpt lat="59.9495529" lon="17.7090336">
        <ele>55.4131</ele>
        <time>2012-03-26T18:46:22Z</time>
      </trkpt>
      <trkpt lat="59.9496043" lon="17.7088596">
        <ele>55.4131</ele>
        <time>2012-03-26T18:46:27Z</time>
      </trkpt>
      <trkpt lat="59.9496367" lon="17.708687">
        <ele>54.4518</ele>
        <time>2012-03-26T18:46:31Z</time>
      </trkpt>
      <trkpt lat="59.9496492" lon="17.7086102">
        <ele>53.4905</ele>
        <time>2012-03-26T18:46:33Z</time>
      </trkpt>
      <trkpt lat="59.9497059" lon="17.7083607">
        <ele>51.5679</ele>
        <time>2012-03-26T18:46:39Z</time>
      </trkpt>
      <trkpt lat="59.9497436" lon="17.7082597">
        <ele>51.5679</ele>
        <time>2012-03-26T18:46:42Z</time>
      </trkpt>
      <trkpt lat="59.94978" lon="17.7080701">
        <ele>51.0872</ele>
        <time>2012-03-26T18:46:46Z</time>
      </trkpt>
      <trkpt lat="59.9498696" lon="17.7078401">
        <ele>49.1646</ele>
        <time>2012-03-26T18:46:53Z</time>
      </trkpt>
      <trkpt lat="59.9499436" lon="17.7076878">
        <ele>49.6453</ele>
        <time>2012-03-26T18:46:58Z</time>
      </trkpt>
      <trkpt lat="59.9500161" lon="17.7074909">
        <ele>49.6453</ele>
        <time>2012-03-26T18:47:04Z</time>
      </trkpt>
      <trkpt lat="59.9501197" lon="17.7073396">
        <ele>48.2034</ele>
        <time>2012-03-26T18:47:10Z</time>
      </trkpt>
      <trkpt lat="59.950219" lon="17.7073159">
        <ele>48.2034</ele>
        <time>2012-03-26T18:47:14Z</time>
      </trkpt>
      <trkpt lat="59.9502989" lon="17.7073189">
        <ele>49.6453</ele>
        <time>2012-03-26T18:47:20Z</time>
      </trkpt>
      <trkpt lat="59.9503236" lon="17.7073858">
        <ele>50.126</ele>
        <time>2012-03-26T18:47:26Z</time>
      </trkpt>
      <trkpt lat="59.9503501" lon="17.7074256">
        <ele>51.5679</ele>
        <time>2012-03-26T18:47:30Z</time>
      </trkpt>
      <trkpt lat="59.9503875" lon="17.7075885">
        <ele>52.5292</ele>
        <time>2012-03-26T18:47:34Z</time>
      </trkpt>
      <trkpt lat="59.9503445" lon="17.7077332">
        <ele>49.6453</ele>
        <time>2012-03-26T18:47:37Z</time>
      </trkpt>
      <trkpt lat="59.9502362" lon="17.7078438">
        <ele>49.1646</ele>
        <time>2012-03-26T18:47:42Z</time>
      </trkpt>
      <trkpt lat="59.9501452" lon="17.7078351">
        <ele>50.126</ele>
        <time>2012-03-26T18:47:46Z</time>
      </trkpt>
      <trkpt lat="59.9500653" lon="17.7078676">
        <ele>50.126</ele>
        <time>2012-03-26T18:47:50Z</time>
      </trkpt>
      <trkpt lat="59.9500498" lon="17.7078785">
        <ele>50.6066</ele>
        <time>2012-03-26T18:47:51Z</time>
      </trkpt>
      <trkpt lat="59.949939" lon="17.7079028">
        <ele>49.6453</ele>
        <time>2012-03-26T18:47:57Z</time>
      </trkpt>
      <trkpt lat="59.9498902" lon="17.7081023">
        <ele>46.7612</ele>
        <time>2012-03-26T18:48:03Z</time>
      </trkpt>
      <trkpt lat="59.9498616" lon="17.7082298">
        <ele>48.684</ele>
        <time>2012-03-26T18:48:07Z</time>
      </trkpt>
      <trkpt lat="59.9498418" lon="17.7083816">
        <ele>48.684</ele>
        <time>2012-03-26T18:48:11Z</time>
      </trkpt>
      <trkpt lat="59.9497815" lon="17.7085981">
        <ele>49.1646</ele>
        <time>2012-03-26T18:48:17Z</time>
      </trkpt>
      <trkpt lat="59.9497277" lon="17.7088172">
        <ele>51.0872</ele>
        <time>2012-03-26T18:48:23Z</time>
      </trkpt>
      <trkpt lat="59.9496787" lon="17.7089664">
        <ele>51.0872</ele>
        <time>2012-03-26T18:48:27Z</time>
      </trkpt>
      <trkpt lat="59.9496673" lon="17.7091346">
        <ele>53.0098</ele>
        <time>2012-03-26T18:48:31Z</time>
      </trkpt>
      <trkpt lat="59.9496306" lon="17.7092982">
        <ele>54.4518</ele>
        <time>2012-03-26T18:48:37Z</time>
      </trkpt>
      <trkpt lat="59.9496851" lon="17.7093859">
        <ele>55.8938</ele>
        <time>2012-03-26T18:48:41Z</time>
      </trkpt>
      <trkpt lat="59.9497125" lon="17.7094546">
        <ele>56.3745</ele>
        <time>2012-03-26T18:48:43Z</time>
      </trkpt>
      <trkpt lat="59.949743" lon="17.7095402">
        <ele>56.3745</ele>
        <time>2012-03-26T18:48:48Z</time>
      </trkpt>
      <trkpt lat="59.9497933" lon="17.7095279">
        <ele>60.2197</ele>
        <time>2012-03-26T18:48:56Z</time>
      </trkpt>
      <trkpt lat="59.9498139" lon="17.709463">
        <ele>63.5844</ele>
        <time>2012-03-26T18:49:00Z</time>
      </trkpt>
      <trkpt lat="59.9498094" lon="17.709408">
        <ele>64.5457</ele>
        <time>2012-03-26T18:49:05Z</time>
      </trkpt>
      <trkpt lat="59.9498089" lon="17.7094097">
        <ele>64.0651</ele>
        <time>2012-03-26T18:49:08Z</time>
      </trkpt>
      <trkpt lat="59.9498533" lon="17.7093824">
        <ele>68.3909</ele>
        <time>2012-03-26T18:50:36Z</time>
      </trkpt>
      <trkpt lat="59.9498529" lon="17.7093771">
        <ele>68.3909</ele>
        <time>2012-03-26T18:50:37Z</time>
      </trkpt>
      <trkpt lat="59.9498571" lon="17.7093238">
        <ele>68.3909</ele>
        <time>2012-03-26T18:50:39Z</time>
      </trkpt>
      <trkpt lat="59.9498789" lon="17.7092419">
        <ele>67.9103</ele>
        <time>2012-03-26T18:50:43Z</time>
      </trkpt>
      <trkpt lat="59.9499167" lon="17.709137">
        <ele>66.949</ele>
        <time>2012-03-26T18:50:49Z</time>
      </trkpt>
      <trkpt lat="59.9499912" lon="17.7089851">
        <ele>64.5457</ele>
        <time>2012-03-26T18:50:57Z</time>
      </trkpt>
      <trkpt lat="59.9500026" lon="17.7089741">
        <ele>63.5844</ele>
        <time>2012-03-26T18:50:58Z</time>
      </trkpt>
      <trkpt lat="59.9500597" lon="17.708989">
        <ele>62.6229</ele>
        <time>2012-03-26T18:51:03Z</time>
      </trkpt>
      <trkpt lat="59.9500734" lon="17.7090228">
        <ele>63.1036</ele>
        <time>2012-03-26T18:51:05Z</time>
      </trkpt>
      <trkpt lat="59.9500926" lon="17.7091077">
        <ele>61.6617</ele>
        <time>2012-03-26T18:51:11Z</time>
      </trkpt>
      <trkpt lat="59.9501336" lon="17.7091802">
        <ele>61.181</ele>
        <time>2012-03-26T18:51:18Z</time>
      </trkpt>
      <trkpt lat="59.9501706" lon="17.7092377">
        <ele>59.7391</ele>
        <time>2012-03-26T18:51:23Z</time>
      </trkpt>
      <trkpt lat="59.950201" lon="17.7092924">
        <ele>58.2971</ele>
        <time>2012-03-26T18:51:27Z</time>
      </trkpt>
      <trkpt lat="59.9502238" lon="17.7093294">
        <ele>57.3358</ele>
        <time>2012-03-26T18:51:30Z</time>
      </trkpt>
      <trkpt lat="59.9503155" lon="17.709358">
        <ele>53.9712</ele>
        <time>2012-03-26T18:51:36Z</time>
      </trkpt>
      <trkpt lat="59.9503539" lon="17.7094023">
        <ele>51.5679</ele>
        <time>2012-03-26T18:51:41Z</time>
      </trkpt>
      <trkpt lat="59.9503653" lon="17.709421">
        <ele>49.6453</ele>
        <time>2012-03-26T18:51:43Z</time>
      </trkpt>
      <trkpt lat="59.9504184" lon="17.709523">
        <ele>42.916</ele>
        <time>2012-03-26T18:51:50Z</time>
      </trkpt>
      <trkpt lat="59.9504396" lon="17.7095713">
        <ele>40.0321</ele>
        <time>2012-03-26T18:51:53Z</time>
      </trkpt>
      <trkpt lat="59.9504761" lon="17.7096553">
        <ele>37.6287</ele>
        <time>2012-03-26T18:52:00Z</time>
      </trkpt>
      <trkpt lat="59.9504772" lon="17.709662">
        <ele>37.1481</ele>
        <time>2012-03-26T18:52:01Z</time>
      </trkpt>
      <trkpt lat="59.9505266" lon="17.7096696">
        <ele>36.1868</ele>
        <time>2012-03-26T18:52:06Z</time>
      </trkpt>
      <trkpt lat="59.9505792" lon="17.7097018">
        <ele>35.7061</ele>
        <time>2012-03-26T18:52:12Z</time>
      </trkpt>
      <trkpt lat="59.9506062" lon="17.7096911">
        <ele>35.7061</ele>
        <time>2012-03-26T18:52:16Z</time>
      </trkpt>
      <trkpt lat="59.9506608" lon="17.709735">
        <ele>35.2255</ele>
        <time>2012-03-26T18:52:21Z</time>
      </trkpt>
      <trkpt lat="59.9507043" lon="17.7097997">
        <ele>36.6675</ele>
        <time>2012-03-26T18:52:27Z</time>
      </trkpt>
      <trkpt lat="59.9507359" lon="17.7098499">
        <ele>38.1094</ele>
        <time>2012-03-26T18:52:30Z</time>
      </trkpt>
      <trkpt lat="59.9507517" lon="17.7099236">
        <ele>40.0321</ele>
        <time>2012-03-26T18:52:34Z</time>
      </trkpt>
      <trkpt lat="59.9507266" lon="17.7099345">
        <ele>41.474</ele>
        <time>2012-03-26T18:52:39Z</time>
      </trkpt>
      <trkpt lat="59.950714" lon="17.7099245">
        <ele>41.9547</ele>
        <time>2012-03-26T18:52:42Z</time>
      </trkpt>
      <trkpt lat="59.9505693" lon="17.7098474">
        <ele>42.4354</ele>
        <time>2012-03-26T18:52:48Z</time>
      </trkpt>
      <trkpt lat="59.9505337" lon="17.7097876">
        <ele>43.3966</ele>
        <time>2012-03-26T18:52:50Z</time>
      </trkpt>
      <trkpt lat="59.9504326" lon="17.7096946">
        <ele>46.2806</ele>
        <time>2012-03-26T18:52:55Z</time>
      </trkpt>
      <trkpt lat="59.9504092" lon="17.7096723">
        <ele>46.7612</ele>
        <time>2012-03-26T18:52:56Z</time>
      </trkpt>
      <trkpt lat="59.9503316" lon="17.7095754">
        <ele>49.1646</ele>
        <time>2012-03-26T18:53:01Z</time>
      </trkpt>
      <trkpt lat="59.9502909" lon="17.7095386">
        <ele>51.5679</ele>
        <time>2012-03-26T18:53:05Z</time>
      </trkpt>
      <trkpt lat="59.9502314" lon="17.7094719">
        <ele>54.4518</ele>
        <time>2012-03-26T18:53:10Z</time>
      </trkpt>
      <trkpt lat="59.950196" lon="17.7094044">
        <ele>57.3358</ele>
        <time>2012-03-26T18:53:14Z</time>
      </trkpt>
      <trkpt lat="59.9501794" lon="17.7093056">
        <ele>59.2584</ele>
        <time>2012-03-26T18:53:18Z</time>
      </trkpt>
      <trkpt lat="59.9501402" lon="17.7092371">
        <ele>61.181</ele>
        <time>2012-03-26T18:53:22Z</time>
      </trkpt>
      <trkpt lat="59.9501342" lon="17.7092127">
        <ele>62.1423</ele>
        <time>2012-03-26T18:53:24Z</time>
      </trkpt>
      <trkpt lat="59.9501202" lon="17.7091144">
        <ele>65.0264</ele>
        <time>2012-03-26T18:53:29Z</time>
      </trkpt>
      <trkpt lat="59.9501102" lon="17.7090987">
        <ele>65.9877</ele>
        <time>2012-03-26T18:53:30Z</time>
      </trkpt>
      <trkpt lat="59.9500927" lon="17.7090672">
        <ele>66.949</ele>
        <time>2012-03-26T18:53:32Z</time>
      </trkpt>
      <trkpt lat="59.950042" lon="17.7090191">
        <ele>67.9103</ele>
        <time>2012-03-26T18:53:38Z</time>
      </trkpt>
      <trkpt lat="59.9500259" lon="17.7090153">
        <ele>66.949</ele>
        <time>2012-03-26T18:53:45Z</time>
      </trkpt>
      <trkpt lat="59.9500098" lon="17.7089859">
        <ele>67.4297</ele>
        <time>2012-03-26T18:53:50Z</time>
      </trkpt>
      <trkpt lat="59.9499908" lon="17.7089704">
        <ele>67.4297</ele>
        <time>2012-03-26T18:53:54Z</time>
      </trkpt>
      <trkpt lat="59.9499892" lon="17.7089902">
        <ele>66.949</ele>
        <time>2012-03-26T18:53:58Z</time>
      </trkpt>
      <trkpt lat="59.9499741" lon="17.7089821">
        <ele>66.949</ele>
        <time>2012-03-26T18:54:02Z</time>
      </trkpt>
      <trkpt lat="59.949981" lon="17.7089089">
        <ele>66.4683</ele>
        <time>2012-03-26T18:54:09Z</time>
      </trkpt>
      <trkpt lat="59.9500047" lon="17.7088584">
        <ele>65.9877</ele>
        <time>2012-03-26T18:54:12Z</time>
      </trkpt>
      <trkpt lat="59.9500182" lon="17.7087699">
        <ele>64.5457</ele>
        <time>2012-03-26T18:54:16Z</time>
      </trkpt>
      <trkpt lat="59.9500259" lon="17.7086813">
        <ele>62.6229</ele>
        <time>2012-03-26T18:54:20Z</time>
      </trkpt>
      <trkpt lat="59.9500037" lon="17.70858">
        <ele>60.2197</ele>
        <time>2012-03-26T18:54:22Z</time>
      </trkpt>
      <trkpt lat="59.9499937" lon="17.7084505">
        <ele>58.7777</ele>
        <time>2012-03-26T18:54:29Z</time>
      </trkpt>
      <trkpt lat="59.9500011" lon="17.7083872">
        <ele>57.3358</ele>
        <time>2012-03-26T18:54:32Z</time>
      </trkpt>
      <trkpt lat="59.950026" lon="17.7083269">
        <ele>55.4131</ele>
        <time>2012-03-26T18:54:36Z</time>
      </trkpt>
      <trkpt lat="59.9500249" lon="17.7082789">
        <ele>53.9712</ele>
        <time>2012-03-26T18:54:38Z</time>
      </trkpt>
      <trkpt lat="59.9500788" lon="17.7082473">
        <ele>51.0872</ele>
        <time>2012-03-26T18:54:42Z</time>
      </trkpt>
      <trkpt lat="59.9501043" lon="17.7082509">
        <ele>51.0872</ele>
        <time>2012-03-26T18:54:43Z</time>
      </trkpt>
      <trkpt lat="59.950158" lon="17.7081836">
        <ele>46.7612</ele>
        <time>2012-03-26T18:54:47Z</time>
      </trkpt>
      <trkpt lat="59.9501694" lon="17.7081777">
        <ele>46.2806</ele>
        <time>2012-03-26T18:54:48Z</time>
      </trkpt>
      <trkpt lat="59.9502223" lon="17.7081344">
        <ele>42.916</ele>
        <time>2012-03-26T18:54:54Z</time>
      </trkpt>
      <trkpt lat="59.9502813" lon="17.7081171">
        <ele>40.5128</ele>
        <time>2012-03-26T18:55:01Z</time>
      </trkpt>
      <trkpt lat="59.9502937" lon="17.7081245">
        <ele>40.0321</ele>
        <time>2012-03-26T18:55:02Z</time>
      </trkpt>
      <trkpt lat="59.9503218" lon="17.7081575">
        <ele>40.0321</ele>
        <time>2012-03-26T18:55:04Z</time>
      </trkpt>
      <trkpt lat="59.9503507" lon="17.70823">
        <ele>40.0321</ele>
        <time>2012-03-26T18:55:08Z</time>
      </trkpt>
      <trkpt lat="59.9503769" lon="17.7082969">
        <ele>40.5128</ele>
        <time>2012-03-26T18:55:12Z</time>
      </trkpt>
      <trkpt lat="59.9504507" lon="17.7083333">
        <ele>37.1481</ele>
        <time>2012-03-26T18:55:19Z</time>
      </trkpt>
      <trkpt lat="59.9504868" lon="17.7084113">
        <ele>36.6675</ele>
        <time>2012-03-26T18:55:26Z</time>
      </trkpt>
      <trkpt lat="59.9505155" lon="17.7084328">
        <ele>35.7061</ele>
        <time>2012-03-26T18:55:31Z</time>
      </trkpt>
      <trkpt lat="59.9505557" lon="17.7084859">
        <ele>35.7061</ele>
        <time>2012-03-26T18:55:35Z</time>
      </trkpt>
      <trkpt lat="59.950574" lon="17.7085343">
        <ele>35.7061</ele>
        <time>2012-03-26T18:55:37Z</time>
      </trkpt>
      <trkpt lat="59.9505906" lon="17.7085585">
        <ele>38.1094</ele>
        <time>2012-03-26T18:55:43Z</time>
      </trkpt>
      <trkpt lat="59.9505973" lon="17.7085704">
        <ele>41.474</ele>
        <time>2012-03-26T18:55:58Z</time>
      </trkpt>
      <trkpt lat="59.9505995" lon="17.7085738">
        <ele>41.9547</ele>
        <time>2012-03-26T18:56:04Z</time>
      </trkpt>
      <trkpt lat="59.950631" lon="17.7085213">
        <ele>42.916</ele>
        <time>2012-03-26T18:56:09Z</time>
      </trkpt>
      <trkpt lat="59.9506424" lon="17.7085156">
        <ele>43.3966</ele>
        <time>2012-03-26T18:56:10Z</time>
      </trkpt>
      <trkpt lat="59.9507025" lon="17.7084909">
        <ele>43.3966</ele>
        <time>2012-03-26T18:56:15Z</time>
      </trkpt>
      <trkpt lat="59.9507776" lon="17.7084456">
        <ele>43.3966</ele>
        <time>2012-03-26T18:56:21Z</time>
      </trkpt>
      <trkpt lat="59.9508025" lon="17.7084276">
        <ele>41.9547</ele>
        <time>2012-03-26T18:56:24Z</time>
      </trkpt>
      <trkpt lat="59.9507869" lon="17.7083472">
        <ele>41.9547</ele>
        <time>2012-03-26T18:56:30Z</time>
      </trkpt>
      <trkpt lat="59.95071" lon="17.7082643">
        <ele>44.358</ele>
        <time>2012-03-26T18:56:38Z</time>
      </trkpt>
      <trkpt lat="59.9506475" lon="17.7081875">
        <ele>45.7999</ele>
        <time>2012-03-26T18:56:45Z</time>
      </trkpt>
      <trkpt lat="59.9506081" lon="17.7081425">
        <ele>46.7612</ele>
        <time>2012-03-26T18:56:49Z</time>
      </trkpt>
      <trkpt lat="59.9505757" lon="17.7080406">
        <ele>47.7225</ele>
        <time>2012-03-26T18:56:54Z</time>
      </trkpt>
      <trkpt lat="59.9505652" lon="17.7079986">
        <ele>48.2034</ele>
        <time>2012-03-26T18:56:55Z</time>
      </trkpt>
      <trkpt lat="59.9504355" lon="17.7077814">
        <ele>51.0872</ele>
        <time>2012-03-26T18:57:02Z</time>
      </trkpt>
      <trkpt lat="59.9503652" lon="17.7076749">
        <ele>52.5292</ele>
        <time>2012-03-26T18:57:06Z</time>
      </trkpt>
      <trkpt lat="59.9503493" lon="17.7076645">
        <ele>53.0098</ele>
        <time>2012-03-26T18:57:07Z</time>
      </trkpt>
      <trkpt lat="59.9502824" lon="17.7077581">
        <ele>52.5292</ele>
        <time>2012-03-26T18:57:13Z</time>
      </trkpt>
      <trkpt lat="59.9502486" lon="17.7077625">
        <ele>51.5679</ele>
        <time>2012-03-26T18:57:15Z</time>
      </trkpt>
      <trkpt lat="59.9501157" lon="17.7077542">
        <ele>49.6453</ele>
        <time>2012-03-26T18:57:22Z</time>
      </trkpt>
      <trkpt lat="59.9499954" lon="17.7077982">
        <ele>47.7225</ele>
        <time>2012-03-26T18:57:29Z</time>
      </trkpt>
      <trkpt lat="59.9499135" lon="17.7078893">
        <ele>48.2034</ele>
        <time>2012-03-26T18:57:34Z</time>
      </trkpt>
      <trkpt lat="59.949883" lon="17.7080924">
        <ele>48.684</ele>
        <time>2012-03-26T18:57:39Z</time>
      </trkpt>
      <trkpt lat="59.9498965" lon="17.7083491">
        <ele>51.5679</ele>
        <time>2012-03-26T18:57:45Z</time>
      </trkpt>
      <trkpt lat="59.9498937" lon="17.7083928">
        <ele>52.5292</ele>
        <time>2012-03-26T18:57:46Z</time>
      </trkpt>
      <trkpt lat="59.9498489" lon="17.7085939">
        <ele>53.4905</ele>
        <time>2012-03-26T18:57:51Z</time>
      </trkpt>
      <trkpt lat="59.9498076" lon="17.7088021">
        <ele>55.4131</ele>
        <time>2012-03-26T18:57:56Z</time>
      </trkpt>
      <trkpt lat="59.9497353" lon="17.7089514">
        <ele>56.8551</ele>
        <time>2012-03-26T18:58:00Z</time>
      </trkpt>
      <trkpt lat="59.9497023" lon="17.7091516">
        <ele>57.8165</ele>
        <time>2012-03-26T18:58:04Z</time>
      </trkpt>
      <trkpt lat="59.9496923" lon="17.709265">
        <ele>58.7777</ele>
        <time>2012-03-26T18:58:07Z</time>
      </trkpt>
      <trkpt lat="59.9496876" lon="17.7093019">
        <ele>59.2584</ele>
        <time>2012-03-26T18:58:09Z</time>
      </trkpt>
      <trkpt lat="59.9496973" lon="17.7094615">
        <ele>60.2197</ele>
        <time>2012-03-26T18:58:15Z</time>
      </trkpt>
      <trkpt lat="59.949754" lon="17.709534">
        <ele>61.181</ele>
        <time>2012-03-26T18:58:18Z</time>
      </trkpt>
      <trkpt lat="59.9498038" lon="17.7094787">
        <ele>63.5844</ele>
        <time>2012-03-26T18:58:24Z</time>
      </trkpt>
    </trkseg>
  </trk>
</gpx>